Caribou, ME

10:42 AM EST on March 05, 2015 (GMT -0500)
Caribou Municipal | Change Station
CLOSE
Current Station
Airport
Location: Caribou,
Elevation: 623 ft
Nearby Weather Stations

Elev 623 ft 46.87 °N, 68.02 °W | Updated 48 minutes ago

Clear
Clear
9 °F
Feels Like -9 °F
N
17
Wind Variable Wind from NW
Gusts 25 mph

Today
High -- | Low -- °F
--% Chance of Precip.
Yesterday
High -- | Low -- °F
Precip. -- in
6:04 AM 5:23 PM
Full, 100% visible
Pressure 29.97 in
Visibility 10.0 miles
Clouds Clear
Windchill -9 °F
Dew Point -9 °F
Humidity 44%
Rainfall 0.00 in
Snow Depth Not available.
UV 3 out of 12
Pollen .30 out of 12
Air Quality Not available.
Flu Activity Not available.
METAR KCAR 051454Z AUTO 32015G22KT 10SM CLR M13/M23 A2993 RMK AO2 PK WND 33026/1404 SLP148 T11281228 51030

More Conditions Fewer Conditions

Pressure 29.97 in
Visibility 10.0 miles
Clouds Clear
Windchill -9 °F
Dew Point -9 °F
Humidity 44%
Rainfall 0.00 in
Snow Depth Not available.
UV 3 out of 12
Pollen .30 out of 12
Air Quality Not available.
Flu Activity Not available.
METAR KCAR 051454Z AUTO 32015G22KT 10SM CLR M13/M23 A2993 RMK AO2 PK WND 33026/1404 SLP148 T11281228 51030

More Conditions Fewer Conditions

10-Day Weather Forecast

Almanac

Astronomy

Mar. 05, 2015 Rise Set
Actual Time
Civil Twilight
Nautical Twilight
Astronomical Twilight
Moon
Length of Visible Light
Length of Day
Tomorrow will be .
, % of the Moon is Illuminated

Today's Extremes

State Highs State Lows

Community

WunderPhotos

Upload Photos

1,802,825 photos uploaded!

WunderBlogs® & News

Nearby

Air Quality

  Air Quality AQ Index Pollutant
Not available.

Snow Depth

Station Depth Elevation

Earthquake Activity

City Distance Mag. Time & Date
Minimum magnitude displayed is 2.5.

Coastal Water Temperatures

Place Temperature

Nearby Weather Stations